sensor_id;sensor_type;location;lat;lon;timestamp;P1;durP1;ratioP1;P2;durP2;ratioP2
24557;SDS011;12726;49.148;8.582;2023-02-28T00:01:43;3.53;;;2.38;;
24557;SDS011;12726;49.148;8.582;2023-02-28T00:04:28;3.50;;;2.65;;
24557;SDS011;12726;49.148;8.582;2023-02-28T00:07:13;3.80;;;2.35;;
24557;SDS011;12726;49.148;8.582;2023-02-28T00:10:00;5.38;;;2.90;;
24557;SDS011;12726;49.148;8.582;2023-02-28T00:12:46;4.05;;;2.53;;
24557;SDS011;12726;49.148;8.582;2023-02-28T00:15:32;5.30;;;2.70;;
24557;SDS011;12726;49.148;8.582;2023-02-28T00:18:18;3.50;;;2.70;;
24557;SDS011;12726;49.148;8.582;2023-02-28T00:21:03;5.90;;;3.17;;
24557;SDS011;12726;49.148;8.582;2023-02-28T00:23:49;4.53;;;2.53;;
24557;SDS011;12726;49.148;8.582;2023-02-28T00:26:36;5.50;;;2.80;;
24557;SDS011;12726;49.148;8.582;2023-02-28T00:29:21;4.43;;;3.03;;
24557;SDS011;12726;49.148;8.582;2023-02-28T00:32:07;3.80;;;2.60;;
24557;SDS011;12726;49.148;8.582;2023-02-28T00:34:52;3.00;;;2.53;;
24557;SDS011;12726;49.148;8.582;2023-02-28T00:37:37;3.72;;;2.55;;
24557;SDS011;12726;49.148;8.582;2023-02-28T00:40:23;5.22;;;2.70;;
24557;SDS011;12726;49.148;8.582;2023-02-28T00:43:09;4.22;;;3.03;;
24557;SDS011;12726;49.148;8.582;2023-02-28T00:45:55;4.63;;;2.85;;
24557;SDS011;12726;49.148;8.582;2023-02-28T00:48:40;3.53;;;2.85;;
24557;SDS011;12726;49.148;8.582;2023-02-28T00:51:26;5.93;;;3.03;;
24557;SDS011;12726;49.148;8.582;2023-02-28T00:54:11;4.97;;;2.58;;
24557;SDS011;12726;49.148;8.582;2023-02-28T00:56:56;3.00;;;2.55;;
24557;SDS011;12726;49.148;8.582;2023-02-28T00:59:43;3.45;;;2.72;;
24557;SDS011;12726;49.148;8.582;2023-02-28T01:02:28;5.15;;;3.20;;
24557;SDS011;12726;49.148;8.582;2023-02-28T01:05:14;3.80;;;2.65;;
24557;SDS011;12726;49.148;8.582;2023-02-28T01:07:59;4.32;;;2.78;;
24557;SDS011;12726;49.148;8.582;2023-02-28T01:10:44;3.85;;;3.03;;
24557;SDS011;12726;49.148;8.582;2023-02-28T01:13:30;3.80;;;2.83;;
24557;SDS011;12726;49.148;8.582;2023-02-28T01:16:17;4.03;;;2.70;;
24557;SDS011;12726;49.148;8.582;2023-02-28T01:19:02;2.97;;;2.63;;
24557;SDS011;12726;49.148;8.582;2023-02-28T01:21:48;5.80;;;2.70;;
24557;SDS011;12726;49.148;8.582;2023-02-28T01:24:35;4.90;;;2.40;;
24557;SDS011;12726;49.148;8.582;2023-02-28T01:27:20;4.72;;;3.03;;
24557;SDS011;12726;49.148;8.582;2023-02-28T01:30:07;5.75;;;2.83;;
24557;SDS011;12726;49.148;8.582;2023-02-28T01:32:58;3.50;;;2.75;;
24557;SDS011;12726;49.148;8.582;2023-02-28T01:35:44;4.43;;;2.80;;
24557;SDS011;12726;49.148;8.582;2023-02-28T01:38:30;4.75;;;2.88;;
24557;SDS011;12726;49.148;8.582;2023-02-28T01:41:16;4.43;;;3.13;;
24557;SDS011;12726;49.148;8.582;2023-02-28T01:44:04;3.80;;;2.63;;
24557;SDS011;12726;49.148;8.582;2023-02-28T01:46:51;3.63;;;3.00;;
24557;SDS011;12726;49.148;8.582;2023-02-28T01:49:37;7.38;;;3.05;;
24557;SDS011;12726;49.148;8.582;2023-02-28T01:52:23;3.63;;;2.75;;
24557;SDS011;12726;49.148;8.582;2023-02-28T01:55:09;6.03;;;3.42;;
24557;SDS011;12726;49.148;8.582;2023-02-28T01:57:58;4.45;;;2.58;;
24557;SDS011;12726;49.148;8.582;2023-02-28T02:00:47;5.78;;;2.78;;
24557;SDS011;12726;49.148;8.582;2023-02-28T02:03:32;4.95;;;3.15;;
24557;SDS011;12726;49.148;8.582;2023-02-28T02:06:21;4.20;;;2.65;;
24557;SDS011;12726;49.148;8.582;2023-02-28T02:09:07;5.13;;;3.40;;
24557;SDS011;12726;49.148;8.582;2023-02-28T02:11:52;7.60;;;3.40;;
24557;SDS011;12726;49.148;8.582;2023-02-28T02:14:43;5.03;;;2.72;;
24557;SDS011;12726;49.148;8.582;2023-02-28T02:17:43;4.95;;;2.80;;
24557;SDS011;12726;49.148;8.582;2023-02-28T02:20:53;4.70;;;3.00;;
24557;SDS011;12726;49.148;8.582;2023-02-28T02:24:09;6.25;;;2.83;;
24557;SDS011;12726;49.148;8.582;2023-02-28T02:27:19;4.65;;;3.28;;
24557;SDS011;12726;49.148;8.582;2023-02-28T02:37:02;5.38;;;2.80;;
24557;SDS011;12726;49.148;8.582;2023-02-28T02:39:58;3.90;;;2.75;;
24557;SDS011;12726;49.148;8.582;2023-02-28T02:42:50;6.63;;;3.17;;
24557;SDS011;12726;49.148;8.582;2023-02-28T02:45:39;5.82;;;3.45;;
24557;SDS011;12726;49.148;8.582;2023-02-28T02:48:31;4.65;;;3.15;;
24557;SDS011;12726;49.148;8.582;2023-02-28T02:51:21;7.22;;;3.20;;
24557;SDS011;12726;49.148;8.582;2023-02-28T02:54:11;6.75;;;3.50;;
24557;SDS011;12726;49.148;8.582;2023-02-28T02:57:01;5.28;;;3.55;;
24557;SDS011;12726;49.148;8.582;2023-02-28T02:59:52;6.20;;;3.58;;
24557;SDS011;12726;49.148;8.582;2023-02-28T03:02:39;4.80;;;3.22;;
24557;SDS011;12726;49.148;8.582;2023-02-28T03:05:26;6.40;;;3.65;;
24557;SDS011;12726;49.148;8.582;2023-02-28T03:08:15;5.43;;;2.92;;
24557;SDS011;12726;49.148;8.582;2023-02-28T03:11:02;4.93;;;3.22;;
24557;SDS011;12726;49.148;8.582;2023-02-28T03:13:52;6.63;;;3.60;;
24557;SDS011;12726;49.148;8.582;2023-02-28T03:17:08;5.53;;;3.55;;
24557;SDS011;12726;49.148;8.582;2023-02-28T03:20:13;4.03;;;3.42;;
24557;SDS011;12726;49.148;8.582;2023-02-28T03:23:09;5.53;;;3.53;;
24557;SDS011;12726;49.148;8.582;2023-02-28T03:26:04;4.65;;;3.05;;
24557;SDS011;12726;49.148;8.582;2023-02-28T03:28:53;5.95;;;3.42;;
24557;SDS011;12726;49.148;8.582;2023-02-28T03:31:48;5.10;;;3.47;;
24557;SDS011;12726;49.148;8.582;2023-02-28T03:34:37;6.25;;;3.30;;
24557;SDS011;12726;49.148;8.582;2023-02-28T03:37:24;4.38;;;3.17;;
24557;SDS011;12726;49.148;8.582;2023-02-28T03:40:13;5.13;;;3.42;;
24557;SDS011;12726;49.148;8.582;2023-02-28T03:43:07;7.07;;;3.38;;
24557;SDS011;12726;49.148;8.582;2023-02-28T03:45:56;4.72;;;3.30;;
24557;SDS011;12726;49.148;8.582;2023-02-28T03:48:47;5.97;;;3.70;;
24557;SDS011;12726;49.148;8.582;2023-02-28T03:51:38;7.03;;;4.30;;
24557;SDS011;12726;49.148;8.582;2023-02-28T03:54:27;5.38;;;3.33;;
24557;SDS011;12726;49.148;8.582;2023-02-28T03:57:18;8.27;;;4.50;;
24557;SDS011;12726;49.148;8.582;2023-02-28T04:00:14;6.87;;;4.10;;
24557;SDS011;12726;49.148;8.582;2023-02-28T04:03:04;7.18;;;3.75;;
24557;SDS011;12726;49.148;8.582;2023-02-28T04:05:51;5.43;;;3.75;;
24557;SDS011;12726;49.148;8.582;2023-02-28T04:08:38;6.00;;;3.60;;
24557;SDS011;12726;49.148;8.582;2023-02-28T04:11:24;7.22;;;3.70;;
24557;SDS011;12726;49.148;8.582;2023-02-28T04:14:14;6.82;;;3.45;;
24557;SDS011;12726;49.148;8.582;2023-02-28T04:17:01;5.88;;;3.38;;
24557;SDS011;12726;49.148;8.582;2023-02-28T04:19:46;5.95;;;3.90;;
24557;SDS011;12726;49.148;8.582;2023-02-28T04:22:32;6.15;;;3.58;;
24557;SDS011;12726;49.148;8.582;2023-02-28T04:25:17;8.02;;;4.65;;
24557;SDS011;12726;49.148;8.582;2023-02-28T04:28:03;6.25;;;4.03;;
24557;SDS011;12726;49.148;8.582;2023-02-28T04:30:53;7.35;;;3.90;;
24557;SDS011;12726;49.148;8.582;2023-02-28T04:33:41;9.57;;;5.22;;
24557;SDS011;12726;49.148;8.582;2023-02-28T04:36:26;8.15;;;4.82;;
24557;SDS011;12726;49.148;8.582;2023-02-28T04:39:12;7.22;;;4.30;;
24557;SDS011;12726;49.148;8.582;2023-02-28T04:41:58;5.28;;;3.88;;
24557;SDS011;12726;49.148;8.582;2023-02-28T04:44:43;5.88;;;3.75;;
24557;SDS011;12726;49.148;8.582;2023-02-28T04:47:29;6.78;;;4.35;;
24557;SDS011;12726;49.148;8.582;2023-02-28T04:50:16;7.55;;;4.95;;
24557;SDS011;12726;49.148;8.582;2023-02-28T04:53:01;7.63;;;4.53;;
24557;SDS011;12726;49.148;8.582;2023-02-28T04:55:46;7.38;;;5.13;;
24557;SDS011;12726;49.148;8.582;2023-02-28T04:58:32;8.88;;;5.05;;
24557;SDS011;12726;49.148;8.582;2023-02-28T05:01:19;6.10;;;4.72;;
24557;SDS011;12726;49.148;8.582;2023-02-28T05:04:08;7.28;;;4.30;;
24557;SDS011;12726;49.148;8.582;2023-02-28T05:06:57;6.97;;;4.25;;
24557;SDS011;12726;49.148;8.582;2023-02-28T05:09:42;6.57;;;4.47;;
24557;SDS011;12726;49.148;8.582;2023-02-28T05:12:28;5.53;;;4.32;;
24557;SDS011;12726;49.148;8.582;2023-02-28T05:15:13;6.70;;;4.40;;
24557;SDS011;12726;49.148;8.582;2023-02-28T05:18:00;7.38;;;4.90;;
24557;SDS011;12726;49.148;8.582;2023-02-28T05:20:45;6.13;;;4.38;;
24557;SDS011;12726;49.148;8.582;2023-02-28T05:23:32;8.02;;;4.70;;
24557;SDS011;12726;49.148;8.582;2023-02-28T05:26:17;7.82;;;4.70;;
24557;SDS011;12726;49.148;8.582;2023-02-28T05:29:02;6.20;;;4.47;;
24557;SDS011;12726;49.148;8.582;2023-02-28T05:31:48;6.72;;;4.30;;
24557;SDS011;12726;49.148;8.582;2023-02-28T05:34:33;7.93;;;5.00;;
24557;SDS011;12726;49.148;8.582;2023-02-28T05:37:19;8.88;;;5.22;;
24557;SDS011;12726;49.148;8.582;2023-02-28T05:40:06;6.28;;;3.95;;
24557;SDS011;12726;49.148;8.582;2023-02-28T05:42:53;8.38;;;4.43;;
24557;SDS011;12726;49.148;8.582;2023-02-28T05:45:38;9.10;;;5.10;;
24557;SDS011;12726;49.148;8.582;2023-02-28T05:48:24;9.55;;;5.72;;
24557;SDS011;12726;49.148;8.582;2023-02-28T05:51:09;7.72;;;5.00;;
24557;SDS011;12726;49.148;8.582;2023-02-28T05:53:57;8.32;;;5.50;;
24557;SDS011;12726;49.148;8.582;2023-02-28T05:56:45;7.93;;;5.10;;
24557;SDS011;12726;49.148;8.582;2023-02-28T05:59:30;9.07;;;5.85;;
24557;SDS011;12726;49.148;8.582;2023-02-28T06:02:16;8.45;;;4.88;;
24557;SDS011;12726;49.148;8.582;2023-02-28T06:05:02;7.55;;;4.78;;
24557;SDS011;12726;49.148;8.582;2023-02-28T06:07:47;8.55;;;4.93;;
24557;SDS011;12726;49.148;8.582;2023-02-28T06:10:32;8.45;;;4.57;;
24557;SDS011;12726;49.148;8.582;2023-02-28T06:13:19;9.65;;;5.15;;
24557;SDS011;12726;49.148;8.582;2023-02-28T06:16:04;10.02;;;4.63;;
24557;SDS011;12726;49.148;8.582;2023-02-28T06:18:50;9.13;;;5.28;;
24557;SDS011;12726;49.148;8.582;2023-02-28T06:21:39;9.23;;;5.53;;
24557;SDS011;12726;49.148;8.582;2023-02-28T06:24:25;9.45;;;5.25;;
24557;SDS011;12726;49.148;8.582;2023-02-28T06:27:11;8.45;;;5.30;;
24557;SDS011;12726;49.148;8.582;2023-02-28T06:29:58;8.07;;;4.93;;
24557;SDS011;12726;49.148;8.582;2023-02-28T06:32:44;9.45;;;5.35;;
24557;SDS011;12726;49.148;8.582;2023-02-28T06:35:29;8.82;;;5.20;;
24557;SDS011;12726;49.148;8.582;2023-02-28T06:38:15;9.65;;;5.07;;
24557;SDS011;12726;49.148;8.582;2023-02-28T06:41:00;6.88;;;5.07;;
24557;SDS011;12726;49.148;8.582;2023-02-28T06:43:46;8.90;;;4.97;;
24557;SDS011;12726;49.148;8.582;2023-02-28T06:46:33;9.20;;;5.13;;
24557;SDS011;12726;49.148;8.582;2023-02-28T06:49:18;9.30;;;4.95;;
24557;SDS011;12726;49.148;8.582;2023-02-28T06:52:03;8.25;;;5.00;;
24557;SDS011;12726;49.148;8.582;2023-02-28T06:54:48;8.98;;;5.85;;
24557;SDS011;12726;49.148;8.582;2023-02-28T06:57:43;9.00;;;5.82;;
24557;SDS011;12726;49.148;8.582;2023-02-28T07:00:28;8.07;;;5.15;;
24557;SDS011;12726;49.148;8.582;2023-02-28T07:03:15;9.82;;;5.00;;
24557;SDS011;12726;49.148;8.582;2023-02-28T07:06:01;9.00;;;4.95;;
24557;SDS011;12726;49.148;8.582;2023-02-28T07:08:47;9.60;;;5.22;;
24557;SDS011;12726;49.148;8.582;2023-02-28T07:11:33;7.95;;;5.07;;
24557;SDS011;12726;49.148;8.582;2023-02-28T07:14:18;8.65;;;4.90;;
24557;SDS011;12726;49.148;8.582;2023-02-28T07:17:05;6.82;;;4.78;;
24557;SDS011;12726;49.148;8.582;2023-02-28T07:19:53;8.30;;;4.70;;
24557;SDS011;12726;49.148;8.582;2023-02-28T07:22:38;8.02;;;4.90;;
24557;SDS011;12726;49.148;8.582;2023-02-28T07:25:23;7.03;;;4.85;;
24557;SDS011;12726;49.148;8.582;2023-02-28T07:28:10;6.13;;;4.57;;
24557;SDS011;12726;49.148;8.582;2023-02-28T07:30:55;9.35;;;5.10;;
24557;SDS011;12726;49.148;8.582;2023-02-28T07:33:40;7.18;;;5.55;;
24557;SDS011;12726;49.148;8.582;2023-02-28T07:36:27;8.50;;;5.38;;
24557;SDS011;12726;49.148;8.582;2023-02-28T07:39:12;7.88;;;5.00;;
24557;SDS011;12726;49.148;8.582;2023-02-28T07:41:58;6.90;;;4.85;;
24557;SDS011;12726;49.148;8.582;2023-02-28T07:44:44;8.60;;;5.38;;
24557;SDS011;12726;49.148;8.582;2023-02-28T07:47:29;8.25;;;5.13;;
24557;SDS011;12726;49.148;8.582;2023-02-28T07:50:14;7.05;;;4.95;;
24557;SDS011;12726;49.148;8.582;2023-02-28T07:53:02;9.05;;;5.55;;
24557;SDS011;12726;49.148;8.582;2023-02-28T07:55:48;9.45;;;5.72;;
24557;SDS011;12726;49.148;8.582;2023-02-28T07:58:33;7.45;;;5.20;;
24557;SDS011;12726;49.148;8.582;2023-02-28T08:01:19;8.75;;;5.28;;
24557;SDS011;12726;49.148;8.582;2023-02-28T08:04:04;9.10;;;5.50;;
24557;SDS011;12726;49.148;8.582;2023-02-28T08:06:50;7.28;;;4.78;;
24557;SDS011;12726;49.148;8.582;2023-02-28T08:09:38;9.27;;;5.05;;
24557;SDS011;12726;49.148;8.582;2023-02-28T08:12:24;8.00;;;4.78;;
24557;SDS011;12726;49.148;8.582;2023-02-28T08:15:10;9.27;;;5.45;;
24557;SDS011;12726;49.148;8.582;2023-02-28T08:17:56;9.35;;;5.07;;
24557;SDS011;12726;49.148;8.582;2023-02-28T08:20:41;7.82;;;4.90;;
24557;SDS011;12726;49.148;8.582;2023-02-28T08:23:26;7.53;;;4.75;;
24557;SDS011;12726;49.148;8.582;2023-02-28T08:26:13;7.00;;;4.65;;
24557;SDS011;12726;49.148;8.582;2023-02-28T08:28:58;6.38;;;4.15;;
24557;SDS011;12726;49.148;8.582;2023-02-28T08:31:44;7.65;;;5.35;;
24557;SDS011;12726;49.148;8.582;2023-02-28T08:34:29;8.85;;;5.07;;
24557;SDS011;12726;49.148;8.582;2023-02-28T08:37:15;9.23;;;5.07;;
24557;SDS011;12726;49.148;8.582;2023-02-28T08:40:00;6.30;;;4.72;;
24557;SDS011;12726;49.148;8.582;2023-02-28T08:42:49;6.68;;;4.75;;
24557;SDS011;12726;49.148;8.582;2023-02-28T08:45:35;7.05;;;5.13;;
24557;SDS011;12726;49.148;8.582;2023-02-28T08:48:20;8.70;;;4.40;;
24557;SDS011;12726;49.148;8.582;2023-02-28T08:51:06;6.30;;;4.80;;
24557;SDS011;12726;49.148;8.582;2023-02-28T08:53:53;6.28;;;4.72;;
24557;SDS011;12726;49.148;8.582;2023-02-28T08:56:39;8.07;;;4.88;;
24557;SDS011;12726;49.148;8.582;2023-02-28T08:59:26;6.97;;;4.80;;
24557;SDS011;12726;49.148;8.582;2023-02-28T09:02:12;8.05;;;5.22;;
24557;SDS011;12726;49.148;8.582;2023-02-28T09:04:58;7.18;;;4.85;;
24557;SDS011;12726;49.148;8.582;2023-02-28T09:07:43;7.85;;;5.20;;
24557;SDS011;12726;49.148;8.582;2023-02-28T09:10:28;9.57;;;5.25;;
24557;SDS011;12726;49.148;8.582;2023-02-28T09:13:13;7.38;;;4.72;;
24557;SDS011;12726;49.148;8.582;2023-02-28T09:16:00;7.93;;;5.60;;
24557;SDS011;12726;49.148;8.582;2023-02-28T09:18:47;7.68;;;4.85;;
24557;SDS011;12726;49.148;8.582;2023-02-28T09:21:33;7.43;;;5.20;;
24557;SDS011;12726;49.148;8.582;2023-02-28T09:24:18;8.07;;;4.82;;
24557;SDS011;12726;49.148;8.582;2023-02-28T09:27:04;6.85;;;4.55;;
24557;SDS011;12726;49.148;8.582;2023-02-28T09:29:50;7.20;;;5.00;;
24557;SDS011;12726;49.148;8.582;2023-02-28T09:32:36;9.20;;;5.45;;
24557;SDS011;12726;49.148;8.582;2023-02-28T09:35:22;7.15;;;5.20;;
24557;SDS011;12726;49.148;8.582;2023-02-28T09:38:10;5.97;;;4.72;;
24557;SDS011;12726;49.148;8.582;2023-02-28T09:40:56;7.40;;;5.25;;
24557;SDS011;12726;49.148;8.582;2023-02-28T09:43:44;7.28;;;5.57;;
24557;SDS011;12726;49.148;8.582;2023-02-28T09:46:32;6.65;;;4.93;;
24557;SDS011;12726;49.148;8.582;2023-02-28T09:49:23;8.38;;;5.32;;
24557;SDS011;12726;49.148;8.582;2023-02-28T09:52:13;7.03;;;5.35;;
24557;SDS011;12726;49.148;8.582;2023-02-28T09:55:08;9.10;;;5.45;;
24557;SDS011;12726;49.148;8.582;2023-02-28T09:58:04;7.57;;;5.63;;
24557;SDS011;12726;49.148;8.582;2023-02-28T10:01:00;8.88;;;5.57;;
24557;SDS011;12726;49.148;8.582;2023-02-28T10:03:55;5.45;;;4.57;;
24557;SDS011;12726;49.148;8.582;2023-02-28T10:06:46;10.32;;;5.45;;
24557;SDS011;12726;49.148;8.582;2023-02-28T10:09:34;7.25;;;5.13;;
24557;SDS011;12726;49.148;8.582;2023-02-28T10:12:21;8.77;;;5.90;;
24557;SDS011;12726;49.148;8.582;2023-02-28T10:15:07;7.97;;;5.55;;
24557;SDS011;12726;49.148;8.582;2023-02-28T10:18:01;7.47;;;5.57;;
24557;SDS011;12726;49.148;8.582;2023-02-28T10:20:50;8.63;;;5.75;;
24557;SDS011;12726;49.148;8.582;2023-02-28T10:23:37;8.07;;;5.53;;
24557;SDS011;12726;49.148;8.582;2023-02-28T10:26:24;7.68;;;5.72;;
24557;SDS011;12726;49.148;8.582;2023-02-28T10:29:13;8.52;;;5.75;;
24557;SDS011;12726;49.148;8.582;2023-02-28T10:31:59;8.68;;;6.07;;
24557;SDS011;12726;49.148;8.582;2023-02-28T10:34:49;8.18;;;5.88;;
24557;SDS011;12726;49.148;8.582;2023-02-28T10:37:37;9.20;;;5.55;;
24557;SDS011;12726;49.148;8.582;2023-02-28T10:40:29;10.15;;;6.47;;
24557;SDS011;12726;49.148;8.582;2023-02-28T10:43:22;9.02;;;6.40;;
24557;SDS011;12726;49.148;8.582;2023-02-28T10:46:12;8.80;;;5.93;;
24557;SDS011;12726;49.148;8.582;2023-02-28T10:49:13;8.80;;;5.70;;
24557;SDS011;12726;49.148;8.582;2023-02-28T10:52:00;9.68;;;6.00;;
24557;SDS011;12726;49.148;8.582;2023-02-28T10:54:46;10.35;;;6.30;;
24557;SDS011;12726;49.148;8.582;2023-02-28T10:57:37;7.78;;;6.22;;
24557;SDS011;12726;49.148;8.582;2023-02-28T11:00:23;9.32;;;6.05;;
24557;SDS011;12726;49.148;8.582;2023-02-28T11:03:20;9.75;;;6.45;;
24557;SDS011;12726;49.148;8.582;2023-02-28T11:06:13;10.00;;;6.40;;
24557;SDS011;12726;49.148;8.582;2023-02-28T11:09:02;10.63;;;5.65;;
24557;SDS011;12726;49.148;8.582;2023-02-28T11:11:51;9.23;;;6.00;;
24557;SDS011;12726;49.148;8.582;2023-02-28T11:14:39;10.52;;;5.50;;
24557;SDS011;12726;49.148;8.582;2023-02-28T11:17:32;8.38;;;5.88;;
24557;SDS011;12726;49.148;8.582;2023-02-28T11:23:10;9.02;;;6.30;;
24557;SDS011;12726;49.148;8.582;2023-02-28T11:25:59;8.73;;;6.13;;
24557;SDS011;12726;49.148;8.582;2023-02-28T11:28:48;8.57;;;6.45;;
24557;SDS011;12726;49.148;8.582;2023-02-28T11:32:11;8.25;;;6.25;;
24557;SDS011;12726;49.148;8.582;2023-02-28T11:35:01;8.88;;;6.65;;
24557;SDS011;12726;49.148;8.582;2023-02-28T11:37:48;8.70;;;6.10;;
24557;SDS011;12726;49.148;8.582;2023-02-28T11:40:36;12.85;;;6.68;;
24557;SDS011;12726;49.148;8.582;2023-02-28T11:43:30;8.27;;;5.90;;
24557;SDS011;12726;49.148;8.582;2023-02-28T11:46:27;9.10;;;6.03;;
24557;SDS011;12726;49.148;8.582;2023-02-28T11:49:25;9.07;;;6.07;;
24557;SDS011;12726;49.148;8.582;2023-02-28T11:52:20;8.07;;;6.43;;
24557;SDS011;12726;49.148;8.582;2023-02-28T11:55:14;8.30;;;5.90;;
24557;SDS011;12726;49.148;8.582;2023-02-28T12:01:33;8.95;;;6.00;;
24557;SDS011;12726;49.148;8.582;2023-02-28T12:04:26;8.13;;;6.30;;
24557;SDS011;12726;49.148;8.582;2023-02-28T12:07:25;6.95;;;6.05;;
24557;SDS011;12726;49.148;8.582;2023-02-28T12:10:20;8.00;;;6.38;;
24557;SDS011;12726;49.148;8.582;2023-02-28T12:13:12;8.52;;;6.03;;
24557;SDS011;12726;49.148;8.582;2023-02-28T12:16:13;10.98;;;6.57;;
24557;SDS011;12726;49.148;8.582;2023-02-28T12:19:16;7.68;;;6.28;;
24557;SDS011;12726;49.148;8.582;2023-02-28T12:22:10;7.75;;;6.03;;
24557;SDS011;12726;49.148;8.582;2023-02-28T12:25:22;7.60;;;6.22;;
24557;SDS011;12726;49.148;8.582;2023-02-28T12:28:21;7.35;;;5.55;;
24557;SDS011;12726;49.148;8.582;2023-02-28T12:31:11;6.07;;;5.22;;
24557;SDS011;12726;49.148;8.582;2023-02-28T12:36:51;6.88;;;5.93;;
24557;SDS011;12726;49.148;8.582;2023-02-28T12:39:40;7.95;;;6.25;;
24557;SDS011;12726;49.148;8.582;2023-02-28T12:42:30;8.55;;;5.90;;
24557;SDS011;12726;49.148;8.582;2023-02-28T12:45:20;11.30;;;6.93;;
24557;SDS011;12726;49.148;8.582;2023-02-28T12:48:09;9.68;;;6.60;;
24557;SDS011;12726;49.148;8.582;2023-02-28T12:50:58;9.43;;;6.47;;
24557;SDS011;12726;49.148;8.582;2023-02-28T12:53:49;7.75;;;6.22;;
24557;SDS011;12726;49.148;8.582;2023-02-28T12:56:44;9.35;;;6.75;;
24557;SDS011;12726;49.148;8.582;2023-02-28T12:59:36;10.52;;;6.72;;
24557;SDS011;12726;49.148;8.582;2023-02-28T13:02:33;12.07;;;6.63;;
24557;SDS011;12726;49.148;8.582;2023-02-28T13:09:13;11.52;;;7.47;;
24557;SDS011;12726;49.148;8.582;2023-02-28T13:12:00;10.30;;;7.00;;
24557;SDS011;12726;49.148;8.582;2023-02-28T13:14:46;11.90;;;6.68;;
24557;SDS011;12726;49.148;8.582;2023-02-28T13:17:32;8.90;;;6.75;;
24557;SDS011;12726;49.148;8.582;2023-02-28T13:20:19;9.32;;;7.30;;
24557;SDS011;12726;49.148;8.582;2023-02-28T13:23:16;10.00;;;7.45;;
24557;SDS011;12726;49.148;8.582;2023-02-28T13:26:23;10.15;;;7.68;;
24557;SDS011;12726;49.148;8.582;2023-02-28T13:29:26;12.18;;;7.53;;
24557;SDS011;12726;49.148;8.582;2023-02-28T13:35:37;12.40;;;8.10;;
24557;SDS011;12726;49.148;8.582;2023-02-28T13:38:33;12.25;;;7.65;;
24557;SDS011;12726;49.148;8.582;2023-02-28T13:41:40;11.80;;;7.95;;
24557;SDS011;12726;49.148;8.582;2023-02-28T13:44:30;11.23;;;7.53;;
24557;SDS011;12726;49.148;8.582;2023-02-28T13:47:56;9.80;;;6.78;;
24557;SDS011;12726;49.148;8.582;2023-02-28T13:50:44;9.82;;;7.30;;
24557;SDS011;12726;49.148;8.582;2023-02-28T13:53:37;8.98;;;7.53;;
24557;SDS011;12726;49.148;8.582;2023-02-28T13:56:40;10.63;;;7.85;;
24557;SDS011;12726;49.148;8.582;2023-02-28T13:59:35;11.82;;;7.70;;
24557;SDS011;12726;49.148;8.582;2023-02-28T14:02:43;12.20;;;7.72;;
24557;SDS011;12726;49.148;8.582;2023-02-28T14:05:41;8.88;;;7.35;;
24557;SDS011;12726;49.148;8.582;2023-02-28T14:08:28;11.02;;;7.65;;
24557;SDS011;12726;49.148;8.582;2023-02-28T14:11:24;10.02;;;7.32;;
24557;SDS011;12726;49.148;8.582;2023-02-28T14:17:37;14.15;;;8.85;;
24557;SDS011;12726;49.148;8.582;2023-02-28T14:20:24;11.35;;;7.55;;
24557;SDS011;12726;49.148;8.582;2023-02-28T14:23:16;10.77;;;7.82;;
24557;SDS011;12726;49.148;8.582;2023-02-28T14:26:13;10.02;;;7.47;;
24557;SDS011;12726;49.148;8.582;2023-02-28T14:29:24;10.73;;;7.28;;
24557;SDS011;12726;49.148;8.582;2023-02-28T14:32:22;10.20;;;7.15;;
24557;SDS011;12726;49.148;8.582;2023-02-28T14:35:35;7.95;;;6.75;;
24557;SDS011;12726;49.148;8.582;2023-02-28T14:38:29;9.93;;;7.45;;
24557;SDS011;12726;49.148;8.582;2023-02-28T14:41:19;11.95;;;8.20;;
24557;SDS011;12726;49.148;8.582;2023-02-28T14:44:13;10.60;;;7.47;;
24557;SDS011;12726;49.148;8.582;2023-02-28T14:47:00;15.27;;;8.68;;
24557;SDS011;12726;49.148;8.582;2023-02-28T14:49:48;12.35;;;8.45;;
24557;SDS011;12726;49.148;8.582;2023-02-28T14:52:34;11.18;;;7.95;;
24557;SDS011;12726;49.148;8.582;2023-02-28T14:55:21;11.05;;;7.32;;
24557;SDS011;12726;49.148;8.582;2023-02-28T14:58:18;11.90;;;7.72;;
24557;SDS011;12726;49.148;8.582;2023-02-28T15:01:09;10.95;;;7.97;;
24557;SDS011;12726;49.148;8.582;2023-02-28T15:04:00;10.85;;;7.72;;
24557;SDS011;12726;49.148;8.582;2023-02-28T15:06:47;10.30;;;7.65;;
24557;SDS011;12726;49.148;8.582;2023-02-28T15:12:56;13.27;;;8.23;;
24557;SDS011;12726;49.148;8.582;2023-02-28T15:15:44;9.95;;;7.70;;
24557;SDS011;12726;49.148;8.582;2023-02-28T15:18:37;10.85;;;7.97;;
24557;SDS011;12726;49.148;8.582;2023-02-28T15:21:33;11.68;;;7.95;;
24557;SDS011;12726;49.148;8.582;2023-02-28T15:24:25;11.50;;;7.65;;
24557;SDS011;12726;49.148;8.582;2023-02-28T15:27:21;12.43;;;7.80;;
24557;SDS011;12726;49.148;8.582;2023-02-28T15:30:13;13.50;;;8.33;;
24557;SDS011;12726;49.148;8.582;2023-02-28T15:33:02;13.18;;;7.97;;
24557;SDS011;12726;49.148;8.582;2023-02-28T15:35:51;11.35;;;8.27;;
24557;SDS011;12726;49.148;8.582;2023-02-28T15:38:50;10.60;;;7.40;;
24557;SDS011;12726;49.148;8.582;2023-02-28T15:41:37;11.70;;;7.95;;
24557;SDS011;12726;49.148;8.582;2023-02-28T15:44:25;11.15;;;7.47;;
24557;SDS011;12726;49.148;8.582;2023-02-28T15:47:14;11.48;;;7.22;;
24557;SDS011;12726;49.148;8.582;2023-02-28T15:50:03;9.73;;;7.63;;
24557;SDS011;12726;49.148;8.582;2023-02-28T15:52:55;12.27;;;8.50;;
24557;SDS011;12726;49.148;8.582;2023-02-28T15:55:40;12.60;;;8.90;;
24557;SDS011;12726;49.148;8.582;2023-02-28T15:58:26;10.60;;;8.25;;
24557;SDS011;12726;49.148;8.582;2023-02-28T16:01:21;16.80;;;8.55;;
24557;SDS011;12726;49.148;8.582;2023-02-28T16:04:13;11.88;;;8.07;;
24557;SDS011;12726;49.148;8.582;2023-02-28T16:07:01;10.80;;;7.90;;
24557;SDS011;12726;49.148;8.582;2023-02-28T16:09:47;13.52;;;8.85;;
24557;SDS011;12726;49.148;8.582;2023-02-28T16:12:33;14.10;;;8.07;;
24557;SDS011;12726;49.148;8.582;2023-02-28T16:15:21;12.95;;;7.80;;
24557;SDS011;12726;49.148;8.582;2023-02-28T16:18:09;12.23;;;8.20;;
24557;SDS011;12726;49.148;8.582;2023-02-28T16:20:56;11.95;;;8.18;;
24557;SDS011;12726;49.148;8.582;2023-02-28T16:23:41;12.55;;;7.95;;
24557;SDS011;12726;49.148;8.582;2023-02-28T16:26:26;13.82;;;8.40;;
24557;SDS011;12726;49.148;8.582;2023-02-28T16:29:12;12.07;;;8.50;;
24557;SDS011;12726;49.148;8.582;2023-02-28T16:32:04;11.43;;;8.02;;
24557;SDS011;12726;49.148;8.582;2023-02-28T16:34:51;13.57;;;8.93;;
24557;SDS011;12726;49.148;8.582;2023-02-28T16:37:36;13.43;;;8.50;;
24557;SDS011;12726;49.148;8.582;2023-02-28T16:40:22;13.20;;;8.35;;
24557;SDS011;12726;49.148;8.582;2023-02-28T16:43:10;16.33;;;9.48;;
24557;SDS011;12726;49.148;8.582;2023-02-28T16:46:00;15.38;;;8.77;;
24557;SDS011;12726;49.148;8.582;2023-02-28T16:48:47;11.85;;;8.40;;
24557;SDS011;12726;49.148;8.582;2023-02-28T16:51:36;11.10;;;8.18;;
24557;SDS011;12726;49.148;8.582;2023-02-28T16:54:21;16.35;;;8.45;;
24557;SDS011;12726;49.148;8.582;2023-02-28T17:00:01;16.42;;;9.38;;
24557;SDS011;12726;49.148;8.582;2023-02-28T17:02:48;19.30;;;8.90;;
24557;SDS011;12726;49.148;8.582;2023-02-28T17:05:35;12.38;;;8.32;;
24557;SDS011;12726;49.148;8.582;2023-02-28T17:08:24;13.68;;;8.65;;
24557;SDS011;12726;49.148;8.582;2023-02-28T17:11:12;13.25;;;8.70;;
24557;SDS011;12726;49.148;8.582;2023-02-28T17:13:57;14.25;;;9.25;;
24557;SDS011;12726;49.148;8.582;2023-02-28T17:16:43;16.13;;;9.75;;
24557;SDS011;12726;49.148;8.582;2023-02-28T17:19:28;15.30;;;10.02;;
24557;SDS011;12726;49.148;8.582;2023-02-28T17:22:14;14.60;;;9.35;;
24557;SDS011;12726;49.148;8.582;2023-02-28T17:25:00;18.17;;;10.60;;
24557;SDS011;12726;49.148;8.582;2023-02-28T17:27:46;16.17;;;10.15;;